Time;durP1;ratioP1;P1;durP2;ratioP2;P2;SDS_P1;SDS_P2;PMS_P1;PMS_P2;Temp;Humidity;BMP_temperature;BMP_pressure;BME280_temperature;BME280_humidity;BME280_pressure;Samples;Min_cycle;Max_cycle;Signal;HPM_P1;HPM_P2
2022/01/23 00:00:48;;;;;;;7.32;4.63;;;;;;;-1.06;57.62;102146.41;2571000;23;20218;-67
2022/01/23 00:01:54;;;;;;;8.00;4.60;;;;;;;-1.60;57.48;102059.09;2570992;23;20149;-68
2022/01/23 00:02:59;;;;;;;7.32;4.53;;;;;;;-1.77;57.57;102042.72;2570858;23;20163;-67
2022/01/23 00:03:59;;;;;;;8.10;4.53;;;;;;;-1.67;57.89;102088.63;2569855;23;20169;-68
2022/01/23 00:05:07;;;;;;;8.23;5.13;;;;;;;-1.01;57.57;102163.34;2569897;23;20149;-68
2022/01/23 00:06:07;;;;;;;8.77;4.70;;;;;;;-1.46;57.43;102090.47;2570831;23;20138;-68
2022/01/23 00:07:11;;;;;;;7.13;4.90;;;;;;;-0.96;57.50;102157.75;2570648;23;20229;-68
2022/01/23 00:08:13;;;;;;;7.78;4.75;;;;;;;-1.30;57.38;102101.72;2570676;23;20149;-68
2022/01/23 00:09:16;;;;;;;7.97;4.78;;;;;;;-1.24;57.38;102122.97;2570749;23;20500;-68
2022/01/23 00:10:17;;;;;;;6.90;4.40;;;;;;;-1.02;57.25;102166.41;2570467;23;20511;-67
2022/01/23 00:11:21;;;;;;;7.53;4.30;;;;;;;-1.03;57.34;102172.94;2570758;23;20201;-67
2022/01/23 00:12:25;;;;;;;7.68;5.07;;;;;;;-1.12;57.38;102142.22;2570636;23;20152;-68
2022/01/23 00:13:32;;;;;;;7.13;4.63;;;;;;;-0.99;57.30;102178.59;2570776;23;20150;-68
2022/01/23 00:17:23;;;;;;;10.32;4.60;;;;;;;-1.98;57.48;102010.69;2570848;23;20552;-68
2022/01/23 00:18:24;;;;;;;7.38;4.50;;;;;;;-0.98;57.37;102167.38;2569855;23;20225;-68
2022/01/23 00:19:24;;;;;;;7.67;4.67;;;;;;;-1.42;57.33;102108.53;2569949;23;20153;-68
2022/01/23 00:20:25;;;;;;;7.90;4.97;;;;;;;-1.70;57.60;102070.25;2570705;23;20463;-68
2022/01/23 00:21:25;;;;;;;8.03;5.03;;;;;;;-0.96;57.81;102184.19;2570600;23;20154;-68
2022/01/23 00:22:37;;;;;;;7.20;4.87;;;;;;;-1.03;57.50;102183.84;2570579;23;20149;-68
2022/01/23 00:31:25;;;;;;;7.20;4.90;;;;;;;-1.77;57.66;102078.88;2556721;23;20166;-68
2022/01/23 00:32:26;;;;;;;7.95;5.13;;;;;;;-1.16;57.90;102160.28;2570141;23;20196;-68
2022/01/23 00:33:26;;;;;;;7.13;5.60;;;;;;;-1.11;57.84;102174.53;2570604;23;20227;-68
2022/01/23 00:34:27;;;;;;;8.97;5.50;;;;;;;-1.04;57.93;102192.34;2570761;23;20234;-68
2022/01/23 00:35:29;;;;;;;7.57;5.40;;;;;;;-0.97;57.74;102191.53;2570577;23;20146;-67
2022/01/23 00:36:30;;;;;;;7.70;5.75;;;;;;;-1.50;57.74;102103.09;2570627;23;20153;-67
2022/01/23 00:37:30;;;;;;;7.67;5.37;;;;;;;-0.99;57.66;102192.97;2570579;23;20228;-67
2022/01/23 00:38:31;;;;;;;7.70;5.37;;;;;;;-1.05;57.96;102199.69;2582320;23;20266;-67
2022/01/23 00:39:31;;;;;;;8.30;5.63;;;;;;;-2.66;57.91;101919.25;2582790;23;20210;-68
2022/01/23 00:40:34;;;;;;;8.37;6.37;;;;;;;-1.02;57.90;102199.84;2570631;23;20156;-68
2022/01/23 00:41:34;;;;;;;8.80;5.80;;;;;;;-1.21;57.70;102168.59;2570596;23;20151;-68
2022/01/23 00:42:35;;;;;;;8.50;5.40;;;;;;;-1.02;58.05;102196.34;2570736;23;20173;-67
2022/01/23 00:43:40;;;;;;;7.30;5.30;;;;;;;-1.11;57.84;102168.31;2570610;23;20155;-68
2022/01/23 00:44:41;;;;;;;8.80;6.20;;;;;;;-0.92;57.61;102198.78;2570656;23;20144;-68
2022/01/23 00:45:45;;;;;;;8.73;6.38;;;;;;;-0.94;57.73;102195.53;2570973;23;20145;-67
2022/01/23 00:46:50;;;;;;;8.57;6.05;;;;;;;-1.17;57.80;102156.75;2571576;23;20229;-68
2022/01/23 00:47:54;;;;;;;9.07;6.30;;;;;;;-1.45;57.62;102121.19;2583091;23;20153;-68
2022/01/23 00:49:56;;;;;;;10.82;6.53;;;;;;;-0.86;57.79;102192.06;2571576;23;20246;-68
2022/01/23 00:50:57;;;;;;;8.47;6.07;;;;;;;-0.91;57.60;102205.81;2571336;23;20213;-68
2022/01/23 00:51:57;;;;;;;9.13;6.40;;;;;;;-0.98;57.92;102200.81;2571431;23;20229;-68
2022/01/23 00:52:58;;;;;;;10.00;6.33;;;;;;;-1.54;58.36;102131.22;2571462;23;20154;-68
2022/01/23 00:54:00;;;;;;;9.47;6.33;;;;;;;-1.12;57.38;102175.66;2571450;23;20151;-68
2022/01/23 00:55:04;;;;;;;9.35;6.00;;;;;;;-1.37;57.64;102130.16;2571371;23;20204;-68
2022/01/23 00:56:05;;;;;;;9.30;6.15;;;;;;;-0.76;57.33;102199.91;2570529;23;20245;-68
2022/01/23 00:57:05;;;;;;;10.20;5.80;;;;;;;-1.44;57.21;102096.38;2570566;23;20235;-67
2022/01/23 00:58:06;;;;;;;8.57;5.53;;;;;;;-0.93;57.27;102188.97;2570565;23;20181;-67
2022/01/23 00:59:07;;;;;;;8.43;5.73;;;;;;;-0.92;57.26;102198.78;2570688;23;20220;-68
2022/01/23 01:00:08;;;;;;;7.93;5.20;;;;;;;-1.02;57.50;102203.69;2571563;23;20155;-67
2022/01/23 01:01:09;;;;;;;7.13;5.35;;;;;;;-0.98;57.82;102206.28;2570473;23;20247;-67
2022/01/23 01:02:09;;;;;;;8.13;5.73;;;;;;;-0.96;57.39;102211.41;2570657;23;20184;-67
2022/01/23 01:04:29;;;;;;;7.53;5.63;;;;;;;-1.11;57.54;102192.78;2571400;23;20207;-67
2022/01/23 01:05:30;;;;;;;8.50;5.63;;;;;;;-1.12;57.56;102212.97;2570489;23;20153;-67
2022/01/23 01:06:30;;;;;;;7.13;5.10;;;;;;;-1.22;57.76;102192.28;2558114;23;20522;-67
2022/01/23 01:07:31;;;;;;;8.77;5.27;;;;;;;-1.19;57.58;102192.78;2570634;23;20649;-67
2022/01/23 01:08:32;;;;;;;8.47;5.47;;;;;;;-1.40;57.65;102170.00;2571438;23;20148;-67
2022/01/23 01:09:32;;;;;;;8.63;5.37;;;;;;;-1.08;57.43;102202.25;2571426;23;20149;-67
2022/01/23 01:11:59;;;;;;;8.15;5.38;;;;;;;-1.73;57.24;102095.34;2558101;23;20245;-67
2022/01/23 01:13:02;;;;;;;8.10;5.45;;;;;;;-1.12;57.49;102208.31;2566347;23;20164;-67
2022/01/23 01:15:33;;;;;;;8.10;5.87;;;;;;;-1.41;57.07;102155.59;2570639;23;20156;-68
2022/01/23 01:30:57;;;;;;;8.38;5.35;;;;;;;-0.88;55.56;102166.28;2571209;23;20137;-67
2022/01/23 01:32:03;;;;;;;7.63;5.43;;;;;;;-0.91;56.10;102175.88;2570428;23;20265;-67
2022/01/23 01:33:26;;;;;;;9.43;5.68;;;;;;;-0.66;55.67;102199.59;2571531;23;20567;-68
2022/01/23 01:34:39;;;;;;;6.88;4.82;;;;;;;-2.60;55.77;101891.66;2570447;23;20511;-67
2022/01/23 01:35:51;;;;;;;8.60;5.40;;;;;;;-1.04;55.96;102141.44;2572912;23;20160;-67
2022/01/23 01:36:53;;;;;;;9.18;6.55;;;;;;;-0.72;56.07;102204.41;2581050;23;20207;-68
2022/01/23 01:37:54;;;;;;;9.40;6.20;;;;;;;-0.82;56.11;102185.66;2571422;23;20153;-68
2022/01/23 01:38:56;;;;;;;8.52;5.72;;;;;;;-0.58;55.70;102200.75;2571294;23;20148;-68
2022/01/23 01:39:56;;;;;;;9.13;6.00;;;;;;;-1.39;55.44;102073.69;2571200;23;20183;-67
2022/01/23 01:40:57;;;;;;;9.80;6.20;;;;;;;-0.68;56.13;102202.66;2571186;23;20492;-68
2022/01/23 01:41:57;;;;;;;7.93;6.40;;;;;;;-0.63;55.95;102196.22;2571316;23;20199;-68
2022/01/23 01:42:58;;;;;;;9.40;6.83;;;;;;;-1.13;55.61;102135.97;2571230;23;20148;-67
2022/01/23 01:43:59;;;;;;;9.70;6.53;;;;;;;-0.61;55.55;102197.50;2571510;23;20150;-68
2022/01/23 01:45:00;;;;;;;9.90;6.57;;;;;;;-1.04;55.72;102119.66;2571208;23;20159;-68
2022/01/23 01:46:01;;;;;;;7.65;5.72;;;;;;;-1.29;55.45;102073.41;2571300;23;20503;-68
2022/01/23 01:47:02;;;;;;;9.37;6.40;;;;;;;-1.17;55.82;102091.47;2571248;23;20173;-67
2022/01/23 01:48:03;;;;;;;8.90;6.10;;;;;;;-0.46;55.52;102205.22;2571191;23;20203;-67
2022/01/23 01:49:04;;;;;;;9.10;6.45;;;;;;;-0.53;55.75;102198.63;2571431;23;20152;-68
2022/01/23 01:50:05;;;;;;;8.77;6.00;;;;;;;-0.63;55.61;102183.44;2582959;23;20160;-68
2022/01/23 01:51:11;;;;;;;8.68;6.22;;;;;;;-0.50;55.26;102190.63;2582878;23;20173;-68
2022/01/23 01:52:12;;;;;;;10.02;6.30;;;;;;;-0.38;55.23;102204.41;2571499;23;20244;-68
2022/01/23 01:53:13;;;;;;;9.03;6.20;;;;;;;-0.37;55.12;102202.47;2571158;23;20201;-68
2022/01/23 01:54:18;;;;;;;9.77;6.22;;;;;;;-0.32;55.04;102204.25;2571247;23;20158;-68
2022/01/23 01:55:26;;;;;;;9.38;6.03;;;;;;;-0.31;55.21;102201.19;2571104;23;20176;-68
2022/01/23 01:56:34;;;;;;;7.32;5.53;;;;;;;-0.49;54.90;102183.28;2571296;23;20520;-68
2022/01/23 01:57:40;;;;;;;10.68;6.15;;;;;;;-0.78;54.64;102127.84;2570782;23;20146;-68
2022/01/23 02:00:47;;;;;;;7.70;5.33;;;;;;;-0.22;54.87;102207.44;2571122;23;20187;-68
2022/01/23 02:09:10;;;;;;;6.45;5.25;;;;;;;-0.05;54.39;102204.72;2571198;23;20139;-68
2022/01/23 02:10:11;;;;;;;8.25;5.72;;;;;;;-0.47;53.96;102140.16;2570090;23;20159;-68
2022/01/23 02:11:17;;;;;;;7.83;6.00;;;;;;;0.07;54.16;102204.84;2570401;23;20182;-68
2022/01/23 02:13:48;;;;;;;7.70;5.20;;;;;;;0.05;53.76;102207.91;2571260;23;20142;-68
2022/01/23 02:17:28;;;;;;;8.33;6.00;;;;;;;-0.17;54.02;102173.81;2571398;23;20181;-68
2022/01/23 02:51:06;;;;;;;9.38;6.28;;;;;;;-0.43;56.40;102223.66;2570947;23;20174;-68
2022/01/23 02:55:50;;;;;;;8.90;6.40;;;;;;;-1.05;56.44;102131.66;2571110;23;20221;-68
2022/01/23 02:56:54;;;;;;;9.50;6.20;;;;;;;-0.42;56.32;102227.97;2570954;23;20157;-67
2022/01/23 02:57:58;;;;;;;9.27;6.18;;;;;;;-0.99;56.23;102127.66;2571178;23;20219;-68
2022/01/23 02:59:10;;;;;;;9.90;6.20;;;;;;;-0.51;55.99;102199.13;2570080;23;20156;-68
2022/01/23 03:00:14;;;;;;;9.98;6.35;;;;;;;-0.41;56.01;102215.94;2570352;23;20163;-68
2022/01/23 03:01:17;;;;;;;8.35;6.00;;;;;;;-0.26;55.86;102222.81;2571171;23;20151;-68
2022/01/23 03:02:30;;;;;;;8.70;6.38;;;;;;;-0.94;55.66;102116.63;2571208;23;20631;-68
2022/01/23 03:03:36;;;;;;;7.80;5.70;;;;;;;-0.28;55.73;102225.09;2570944;23;20161;-68
2022/01/23 03:04:40;;;;;;;7.75;5.40;;;;;;;-0.31;55.75;102225.72;2570090;23;20165;-68
2022/01/23 03:05:41;;;;;;;9.25;5.75;;;;;;;-0.74;55.92;102159.56;2558344;23;20155;-68
2022/01/23 03:09:12;;;;;;;10.18;6.28;;;;;;;-0.85;55.38;102148.16;2570812;23;20143;-68
2022/01/23 03:10:19;;;;;;;10.30;6.07;;;;;;;-0.45;55.73;102235.97;2570744;23;20582;-68
2022/01/23 03:14:00;;;;;;;8.05;5.80;;;;;;;-0.89;55.28;102159.22;2571190;23;20476;-68
2022/01/23 03:15:09;;;;;;;7.38;5.15;;;;;;;-0.44;55.38;102243.03;2570050;23;20157;-68
2022/01/23 03:16:18;;;;;;;7.63;5.22;;;;;;;-0.38;55.28;102241.75;2570397;23;20213;-67
2022/01/23 03:24:15;;;;;;;7.22;5.13;;;;;;;-0.92;54.04;102144.34;2571028;23;20137;-68
2022/01/23 03:27:52;;;;;;;7.75;4.97;;;;;;;-0.27;54.14;102253.91;2571234;23;20157;-68
2022/01/23 03:29:03;;;;;;;7.00;4.88;;;;;;;-0.93;54.08;102147.38;2570719;23;20165;-67
2022/01/23 03:30:23;;;;;;;7.45;4.93;;;;;;;-0.15;53.61;102257.59;2571123;23;20142;-68
2022/01/23 03:31:40;;;;;;;7.78;4.47;;;;;;;-0.34;53.33;102229.09;2571037;23;20246;-67
2022/01/23 03:32:45;;;;;;;7.93;4.95;;;;;;;-0.14;53.54;102258.41;2582509;23;20154;-68
2022/01/23 03:33:46;;;;;;;7.20;4.90;;;;;;;-0.93;53.51;102152.81;2581913;23;20131;-68
2022/01/23 03:34:46;;;;;;;6.83;4.60;;;;;;;-0.17;53.37;102254.41;2571045;23;20164;-67
2022/01/23 03:35:47;;;;;;;6.93;5.10;;;;;;;-0.15;53.28;102249.44;2569904;23;20227;-67
2022/01/23 03:36:48;;;;;;;6.80;4.90;;;;;;;-0.82;53.83;102145.94;2569581;23;20165;-67
2022/01/23 03:37:49;;;;;;;7.87;4.90;;;;;;;-0.14;53.54;102255.69;2582444;23;20657;-67
2022/01/23 03:38:50;;;;;;;7.68;5.18;;;;;;;-0.23;53.53;102246.72;2582731;23;20160;-68
2022/01/23 03:39:51;;;;;;;7.15;4.32;;;;;;;-0.17;53.64;102243.50;2570727;23;20157;-68
2022/01/23 03:40:52;;;;;;;7.73;5.17;;;;;;;-0.11;53.50;102250.41;2570955;23;20156;-67
2022/01/23 03:41:52;;;;;;;9.53;5.37;;;;;;;-0.17;53.70;102244.66;2570842;23;20150;-68
2022/01/23 03:43:07;;;;;;;7.23;5.17;;;;;;;-0.98;53.92;102127.34;2570826;23;20153;-67
2022/01/23 03:44:10;;;;;;;7.50;5.10;;;;;;;-0.52;53.78;102192.06;2570921;23;20208;-68
2022/01/23 03:46:46;;;;;;;6.45;4.97;;;;;;;-1.05;53.90;102090.84;2570795;23;20147;-68
2022/01/23 03:49:30;;;;;;;7.28;5.40;;;;;;;-0.15;53.86;102241.25;2571041;23;20149;-68
2022/01/23 03:49:34;;;;;;;7.05;4.90;;;;;;;-0.16;53.55;102223.31;2570721;23;20149;-68
2022/01/23 03:50:35;;;;;;;7.13;4.78;;;;;;;-0.07;53.90;102234.19;2570888;23;20180;-68
2022/01/23 03:51:36;;;;;;;7.60;4.97;;;;;;;-0.11;53.71;102239.50;2570896;23;20633;-68
2022/01/23 03:52:38;;;;;;;7.30;5.43;;;;;;;-0.77;53.73;102140.34;2571022;23;20158;-68
2022/01/23 03:53:40;;;;;;;6.53;4.95;;;;;;;-0.76;53.85;102151.69;2570739;23;20585;-68
2022/01/23 03:54:41;;;;;;;9.10;5.00;;;;;;;-0.24;54.09;102242.41;2570691;23;20146;-68
2022/01/23 03:55:42;;;;;;;7.20;5.27;;;;;;;-0.20;53.84;102224.28;2570744;23;20153;-68
2022/01/23 03:56:42;;;;;;;7.68;5.30;;;;;;;-0.51;53.85;102178.13;2570834;23;20152;-68
2022/01/23 03:57:43;;;;;;;6.40;5.03;;;;;;;-0.76;54.17;102153.63;2570756;23;20586;-68
2022/01/23 03:58:44;;;;;;;8.40;4.97;;;;;;;-0.11;54.15;102233.25;2569815;23;20286;-68
2022/01/23 03:59:44;;;;;;;9.10;5.60;;;;;;;-0.36;53.90;102183.09;2570031;23;20157;-68
2022/01/23 04:00:45;;;;;;;7.60;5.37;;;;;;;-0.57;53.88;102163.09;2570844;23;20174;-68
2022/01/23 04:01:45;;;;;;;7.50;4.83;;;;;;;-0.10;53.75;102223.97;2570749;23;20154;-68
2022/01/23 04:02:46;;;;;;;6.40;5.00;;;;;;;-0.38;53.56;102195.44;2570687;23;20177;-67
2022/01/23 04:03:47;;;;;;;6.40;4.50;;;;;;;-0.11;53.77;102227.78;2570691;23;20253;-68
2022/01/23 04:04:47;;;;;;;8.40;5.10;;;;;;;-0.43;54.22;102218.19;2570970;23;20178;-67
2022/01/23 04:05:50;;;;;;;7.43;5.30;;;;;;;-0.31;54.51;102231.16;2570830;23;20181;-68
2022/01/23 04:06:50;;;;;;;7.30;4.78;;;;;;;-0.98;54.30;102105.59;2570949;23;20154;-68
2022/01/23 04:07:51;;;;;;;9.93;5.30;;;;;;;-0.46;54.19;102197.03;2570902;23;20149;-67
2022/01/23 04:08:52;;;;;;;7.87;5.33;;;;;;;-0.89;54.20;102121.13;2570726;23;20155;-67
2022/01/23 04:09:52;;;;;;;7.27;5.20;;;;;;;-0.66;54.28;102156.81;2570694;23;20150;-67
2022/01/23 04:10:53;;;;;;;6.97;4.73;;;;;;;-0.88;54.19;102149.94;2570461;23;20679;-67
2022/01/23 04:11:54;;;;;;;6.67;5.27;;;;;;;-0.19;54.07;102232.13;2570970;23;20177;-67
2022/01/23 04:13:10;;;;;;;8.67;5.13;;;;;;;-0.21;54.31;102237.09;2570737;23;20150;-68
2022/01/23 04:14:13;;;;;;;7.40;5.22;;;;;;;-0.99;54.35;102116.00;2570894;23;20135;-68
2022/01/23 04:15:24;;;;;;;7.68;5.25;;;;;;;-0.18;54.43;102241.09;2570775;23;20150;-68
2022/01/23 04:19:31;;;;;;;7.38;5.60;;;;;;;-0.88;54.08;102122.72;2570857;23;20149;-68
2022/01/23 04:31:43;;;;;;;7.35;5.28;;;;;;;-0.81;53.62;102126.56;2570606;23;20134;-68
2022/01/23 04:34:34;;;;;;;9.50;5.63;;;;;;;-0.73;52.71;102112.16;2570884;23;20163;-68
2022/01/23 05:00:32;;;;;;;7.72;5.60;;;;;;;-1.02;52.76;102090.22;2570738;23;20142;-67
2022/01/23 05:04:16;;;;;;;7.45;5.55;;;;;;;-0.28;53.30;102234.06;2570874;23;20181;-68
2022/01/23 05:05:18;;;;;;;8.65;5.65;;;;;;;-0.23;53.09;102227.63;2570566;23;20483;-68
2022/01/23 05:06:25;;;;;;;10.75;4.93;;;;;;;-1.18;52.74;102080.13;2570649;23;20148;-67
2022/01/23 05:07:28;;;;;;;7.78;5.25;;;;;;;-0.15;52.64;102229.56;2570751;23;20134;-68
2022/01/23 05:08:32;;;;;;;7.88;5.13;;;;;;;-0.61;52.49;102181.19;2570554;23;20150;-67
2022/01/23 05:09:33;;;;;;;7.95;5.75;;;;;;;-0.32;53.07;102219.47;2570526;23;20147;-67
2022/01/23 05:10:34;;;;;;;6.83;5.17;;;;;;;-0.19;52.76;102255.84;2570532;23;20189;-67
2022/01/23 05:11:37;;;;;;;7.07;5.10;;;;;;;-0.15;52.64;102235.03;2569643;23;20515;-67
2022/01/23 05:12:39;;;;;;;8.85;5.60;;;;;;;-0.09;52.44;102239.19;2569885;23;20213;-67
2022/01/23 05:13:40;;;;;;;7.38;5.50;;;;;;;-1.14;52.49;102106.38;2570495;23;20154;-68
2022/01/23 05:14:44;;;;;;;9.80;5.93;;;;;;;-0.16;52.58;102241.56;2570599;23;20170;-67
2022/01/23 05:15:45;;;;;;;9.38;5.53;;;;;;;-2.47;52.11;101887.25;2570525;23;20507;-67
2022/01/23 05:16:46;;;;;;;8.80;5.63;;;;;;;-0.66;52.31;102169.66;2570555;23;20149;-67
2022/01/23 05:17:47;;;;;;;7.97;5.23;;;;;;;-0.61;51.72;102186.63;2570554;23;20640;-68
2022/01/23 05:18:48;;;;;;;7.55;5.10;;;;;;;-0.19;51.23;102248.47;2570517;23;20521;-67
2022/01/23 05:19:49;;;;;;;8.47;5.50;;;;;;;-0.22;51.61;102244.81;2570580;23;20174;-68
2022/01/23 05:20:58;;;;;;;6.37;4.70;;;;;;;-0.22;50.49;102251.84;2569691;23;20157;-67
2022/01/23 05:23:04;;;;;;;8.40;5.55;;;;;;;-0.25;51.72;102252.47;2570514;23;20238;-68
2022/01/23 05:24:05;;;;;;;7.35;5.22;;;;;;;-1.05;50.60;102115.34;2570665;23;20149;-67
2022/01/23 05:25:17;;;;;;;8.07;4.95;;;;;;;-0.86;50.35;102132.97;2569664;23;20163;-67
2022/01/23 05:26:18;;;;;;;7.75;5.30;;;;;;;-0.22;50.77;102223.00;2570081;23;20157;-68
2022/01/23 05:27:22;;;;;;;8.83;5.77;;;;;;;-1.19;50.67;102100.28;2570537;23;20504;-67
2022/01/23 05:28:22;;;;;;;8.05;5.97;;;;;;;-0.12;50.79;102232.47;2570509;23;20149;-67
2022/01/23 05:29:23;;;;;;;8.93;5.60;;;;;;;-0.04;50.41;102239.81;2570675;23;20156;-67
2022/01/23 05:30:24;;;;;;;6.30;4.50;;;;;;;-0.03;49.42;102246.06;2570517;23;20176;-67
2022/01/23 05:31:24;;;;;;;7.30;5.32;;;;;;;-0.30;49.80;102208.28;2570347;23;20591;-68
2022/01/23 05:32:36;;;;;;;8.30;5.43;;;;;;;-0.10;50.31;102243.81;2570615;23;20146;-68
2022/01/23 05:33:37;;;;;;;9.38;5.60;;;;;;;-0.57;50.19;102182.16;2571450;23;20660;-68
2022/01/23 05:34:38;;;;;;;7.43;5.30;;;;;;;-0.02;50.01;102244.94;2570409;23;20198;-67
2022/01/23 05:35:39;;;;;;;7.18;5.32;;;;;;;0.03;49.87;102242.06;2570529;23;20242;-68
2022/01/23 05:36:39;;;;;;;8.43;5.60;;;;;;;-1.36;50.13;102022.19;2571273;23;20145;-67
2022/01/23 05:37:41;;;;;;;7.77;5.30;;;;;;;-0.03;49.98;102235.97;2571483;23;20151;-68
2022/01/23 05:38:41;;;;;;;9.38;5.03;;;;;;;-0.01;50.17;102241.09;2571306;23;20218;-68
2022/01/23 05:39:42;;;;;;;7.73;5.13;;;;;;;-0.87;50.12;102085.09;2571185;23;20148;-68
2022/01/23 05:40:43;;;;;;;7.27;5.10;;;;;;;-0.23;49.19;102164.97;2571250;23;20151;-67
2022/01/23 05:41:44;;;;;;;7.40;5.13;;;;;;;-0.21;49.39;102157.28;2570412;23;20163;-67
2022/01/23 05:42:45;;;;;;;8.90;5.40;;;;;;;0.16;49.08;102220.06;2570496;23;20162;-68
2022/01/23 05:43:45;;;;;;;6.37;4.67;;;;;;;-0.53;49.22;102110.72;2571213;23;20150;-67
2022/01/23 05:44:46;;;;;;;7.43;4.77;;;;;;;0.10;49.07;102212.38;2571393;23;20375;-68
2022/01/23 05:45:47;;;;;;;7.70;5.00;;;;;;;0.25;49.12;102218.13;2571270;23;20486;-68
2022/01/23 05:46:47;;;;;;;8.23;5.50;;;;;;;0.35;48.96;102238.78;2571231;23;20509;-68
2022/01/23 05:47:48;;;;;;;7.00;5.10;;;;;;;0.37;48.76;102240.06;2571192;23;20176;-68
2022/01/23 05:48:48;;;;;;;8.07;5.83;;;;;;;0.42;48.48;102236.38;2570316;23;20210;-68
2022/01/23 05:49:49;;;;;;;8.00;5.27;;;;;;;0.38;48.98;102243.59;2570522;23;20152;-68
2022/01/23 05:50:50;;;;;;;6.97;5.20;;;;;;;0.09;49.20;102217.03;2571059;23;20230;-67
2022/01/23 05:51:50;;;;;;;8.03;5.20;;;;;;;-0.68;48.71;102078.53;2571194;23;20155;-67
2022/01/23 05:52:51;;;;;;;8.23;5.00;;;;;;;0.30;48.78;102247.13;2571064;23;20815;-67
2022/01/23 05:53:52;;;;;;;7.00;4.90;;;;;;;-0.17;48.88;102160.19;2571171;23;20155;-68
2022/01/23 05:54:53;;;;;;;8.18;5.55;;;;;;;0.40;49.01;102254.97;2570298;23;20164;-67
2022/01/23 05:55:53;;;;;;;8.20;5.60;;;;;;;0.31;48.81;102254.22;2570588;23;20199;-67
2022/01/23 05:56:54;;;;;;;7.90;5.47;;;;;;;0.34;49.03;102257.09;2571252;23;20155;-67
2022/01/23 05:57:55;;;;;;;7.07;5.13;;;;;;;-0.14;48.72;102173.94;2570355;23;20160;-68
2022/01/23 05:58:56;;;;;;;6.70;5.10;;;;;;;-0.55;48.88;102124.66;2570561;23;20211;-67
2022/01/23 05:59:57;;;;;;;6.55;4.95;;;;;;;0.17;49.11;102238.00;2571076;23;20181;-68
2022/01/23 06:00:57;;;;;;;8.10;5.57;;;;;;;0.14;48.96;102246.84;2571243;23;20148;-68
2022/01/23 06:01:58;;;;;;;7.07;5.13;;;;;;;0.26;48.86;102248.94;2571287;23;20161;-68
2022/01/23 06:02:59;;;;;;;7.63;5.40;;;;;;;-0.92;49.07;102052.59;2571097;23;20186;-68
2022/01/23 06:04:00;;;;;;;6.90;5.13;;;;;;;0.25;48.93;102245.38;2571187;23;20173;-67
2022/01/23 06:05:00;;;;;;;8.07;5.50;;;;;;;-0.17;48.96;102179.25;2571086;23;20187;-68
2022/01/23 06:06:01;;;;;;;7.73;5.57;;;;;;;0.35;49.05;102266.03;2571383;23;20234;-68
2022/01/23 06:07:02;;;;;;;7.43;5.70;;;;;;;-0.36;48.68;102135.97;2571278;23;20154;-68
2022/01/23 06:08:03;;;;;;;7.75;5.43;;;;;;;0.42;48.59;102253.50;2571143;23;20183;-67
2022/01/23 06:09:05;;;;;;;8.75;5.95;;;;;;;0.35;48.99;102261.41;2570290;23;20246;-68
2022/01/23 06:10:06;;;;;;;8.55;5.70;;;;;;;0.01;48.88;102212.38;2570318;23;20598;-67
2022/01/23 06:11:06;;;;;;;10.38;6.25;;;;;;;-0.95;48.50;102047.00;2582623;23;20565;-67
2022/01/23 06:12:07;;;;;;;9.13;6.27;;;;;;;-0.02;48.85;102196.69;2571109;23;20262;-68
2022/01/23 06:13:08;;;;;;;8.63;6.30;;;;;;;0.49;48.68;102269.38;2571107;23;20239;-68
2022/01/23 06:14:09;;;;;;;10.07;6.37;;;;;;;-0.63;48.81;102090.84;2571076;23;20159;-68
2022/01/23 06:15:09;;;;;;;8.40;5.90;;;;;;;0.43;48.95;102257.84;2571070;23;20155;-67
2022/01/23 06:16:11;;;;;;;7.45;5.35;;;;;;;0.48;48.54;102246.75;2570993;23;20183;-67
2022/01/23 06:17:11;;;;;;;8.73;6.10;;;;;;;0.50;48.71;102251.88;2571136;23;20597;-68
2022/01/23 06:18:12;;;;;;;8.17;5.70;;;;;;;0.50;49.15;102257.34;2571108;23;20563;-68
2022/01/23 06:19:13;;;;;;;7.33;5.70;;;;;;;0.39;48.84;102239.72;2571174;23;20595;-67
2022/01/23 06:20:14;;;;;;;8.37;6.20;;;;;;;0.39;49.13;102269.72;2571134;23;20155;-68
2022/01/23 06:21:19;;;;;;;9.20;6.18;;;;;;;-0.47;49.71;102153.78;2571202;23;20234;-67
2022/01/23 06:22:19;;;;;;;9.88;5.93;;;;;;;0.06;49.92;102263.22;2571139;23;20147;-67
2022/01/23 06:23:20;;;;;;;8.63;5.57;;;;;;;-0.05;50.68;102264.69;2571292;23;20227;-67
2022/01/23 06:25:32;;;;;;;9.15;5.90;;;;;;;-0.70;51.12;102179.59;2571067;23;20247;-68
2022/01/23 06:26:48;;;;;;;8.20;5.75;;;;;;;-0.21;51.17;102258.09;2571178;23;20207;-67
2022/01/23 06:27:49;;;;;;;9.15;6.22;;;;;;;-1.20;51.09;102121.25;2570200;23;20168;-68
2022/01/23 06:29:01;;;;;;;9.03;5.90;;;;;;;-0.88;50.90;102149.94;2570367;23;20157;-68
2022/01/23 06:30:04;;;;;;;9.68;5.68;;;;;;;-0.33;51.01;102260.66;2571036;23;20230;-67
2022/01/23 06:31:04;;;;;;;9.38;5.82;;;;;;;-0.26;51.21;102285.47;2571093;23;20247;-67
2022/01/23 06:32:05;;;;;;;9.57;5.90;;;;;;;-1.50;51.15;102107.75;2571038;23;20150;-67
2022/01/23 06:33:06;;;;;;;9.35;6.32;;;;;;;-0.79;51.07;102219.59;2571304;23;20153;-68
2022/01/23 06:34:09;;;;;;;9.65;6.50;;;;;;;-0.27;51.38;102264.81;2570164;23;20162;-68
2022/01/23 06:35:09;;;;;;;8.55;5.70;;;;;;;-0.75;51.01;102190.63;2570412;23;20584;-68
2022/01/23 06:36:10;;;;;;;9.03;6.17;;;;;;;-0.12;51.07;102270.59;2570176;23;20246;-68
2022/01/23 06:37:12;;;;;;;8.13;5.80;;;;;;;-1.87;50.64;101975.91;2570286;23;20213;-68
2022/01/23 06:38:13;;;;;;;8.85;6.20;;;;;;;0.10;50.48;102269.59;2571080;23;20233;-69
2022/01/23 06:39:13;;;;;;;8.37;5.97;;;;;;;0.14;50.73;102278.75;2582698;23;20158;-68
2022/01/23 06:40:14;;;;;;;7.67;5.70;;;;;;;-0.23;50.47;102214.03;2582934;23;20155;-68
2022/01/23 06:41:15;;;;;;;8.80;6.43;;;;;;;-0.48;50.49;102186.81;2571051;23;20156;-67
2022/01/23 06:42:15;;;;;;;8.67;6.30;;;;;;;0.17;50.40;102276.19;2571031;23;20280;-68
2022/01/23 06:43:16;;;;;;;8.47;6.10;;;;;;;0.20;50.42;102274.72;2571052;23;20152;-68
2022/01/23 06:44:16;;;;;;;7.13;5.60;;;;;;;-0.22;50.02;102202.81;2571150;23;20167;-68
2022/01/23 06:45:17;;;;;;;8.77;6.17;;;;;;;-0.04;50.17;102215.28;2570091;23;20201;-67
2022/01/23 06:46:17;;;;;;;8.10;5.43;;;;;;;0.04;49.87;102233.56;2570110;23;20159;-68
2022/01/23 06:47:19;;;;;;;8.63;5.87;;;;;;;0.21;49.40;102238.19;2582799;23;20154;-68
2022/01/23 06:48:19;;;;;;;8.55;5.38;;;;;;;0.24;49.72;102295.59;2570978;23;20147;-67
2022/01/23 06:49:20;;;;;;;9.13;5.70;;;;;;;-0.37;49.92;102191.59;2570888;23;20189;-67
2022/01/23 06:50:20;;;;;;;9.03;6.13;;;;;;;-0.57;50.29;102181.34;2570923;23;20146;-67
2022/01/23 06:51:21;;;;;;;8.40;6.00;;;;;;;-0.03;50.38;102279.59;2570640;23;20214;-68
2022/01/23 06:52:21;;;;;;;9.20;6.20;;;;;;;-0.17;50.60;102252.81;2571238;23;20150;-67
2022/01/23 06:53:22;;;;;;;10.10;6.57;;;;;;;-2.33;50.39;101896.84;2571092;23;20208;-68
2022/01/23 06:54:22;;;;;;;9.17;5.17;;;;;;;0.02;50.40;102268.50;2570958;23;20603;-68
2022/01/23 06:55:23;;;;;;;9.27;5.33;;;;;;;-0.73;50.05;102171.25;2570903;23;20239;-67
2022/01/23 06:56:23;;;;;;;8.50;6.07;;;;;;;-0.16;50.57;102269.63;2571082;23;20156;-67
2022/01/23 06:57:24;;;;;;;8.83;5.97;;;;;;;-0.17;50.42;102269.94;2570034;23;20154;-67
2022/01/23 06:58:24;;;;;;;10.30;6.47;;;;;;;-0.19;50.96;102273.00;2570186;23;20212;-68
2022/01/23 06:59:25;;;;;;;9.47;6.40;;;;;;;-0.15;50.87;102263.06;2571014;23;20154;-67
2022/01/23 07:00:25;;;;;;;8.80;5.97;;;;;;;-0.11;50.74;102268.66;2570917;23;20149;-68
2022/01/23 07:01:26;;;;;;;8.30;5.73;;;;;;;-1.28;50.63;102077.72;2570919;23;20274;-67
2022/01/23 07:02:27;;;;;;;9.03;6.17;;;;;;;-0.14;50.58;102251.03;2570925;23;20153;-67
2022/01/23 07:03:27;;;;;;;9.57;6.73;;;;;;;-0.08;50.52;102265.31;2570897;23;20149;-67
2022/01/23 07:04:28;;;;;;;10.50;7.10;;;;;;;-0.92;50.66;102126.06;2582531;23;20151;-67
2022/01/23 07:05:28;;;;;;;10.37;7.53;;;;;;;-0.04;50.52;102267.06;2582867;23;20194;-67
2022/01/23 07:06:29;;;;;;;10.27;6.70;;;;;;;-0.02;50.37;102266.75;2571010;23;20156;-68
2022/01/23 07:07:30;;;;;;;11.10;6.97;;;;;;;-0.05;50.85;102260.00;2570905;23;20178;-68
2022/01/23 07:08:31;;;;;;;8.77;6.20;;;;;;;-0.06;50.94;102263.88;2571185;23;20153;-68
2022/01/23 07:09:32;;;;;;;10.73;6.28;;;;;;;-0.77;50.67;102147.38;2571040;23;20202;-68
2022/01/23 07:10:32;;;;;;;8.53;4.90;;;;;;;-0.25;50.32;102213.56;2570704;23;20199;-67
2022/01/23 07:11:33;;;;;;;8.37;5.67;;;;;;;-0.05;50.92;102259.22;2570811;23;20197;-67
2022/01/23 07:12:33;;;;;;;7.53;5.43;;;;;;;-0.06;50.34;102242.06;2571111;23;20580;-68
2022/01/23 07:13:34;;;;;;;8.63;5.30;;;;;;;-0.21;50.48;102249.91;2570837;23;20190;-67